Beauregard Regional Airport
KDRI : now visible

Airfield :











YOU CAN JOIN US ON...

 
LOGIN :

Register | Disclaimer

   EN    FR    IT 

 









Legend :    VFR   Marginal VFR   IFR   Intensive IFR   Very Intensive IFR
Visi :
Ceiling :
>= 8 km
>= 3000ft
5 to 8 km
1000 to 3000 ft
1500m to 5 km
500 to 1000 ft
800 to 1500m
200 to 500 ft
< 800m
< 200 ft
Symbols :   Thunderstorms  Fog  Heavy snow  Heavy precipitations  Wind > 20 kt






- Airport Elevation : 202 ft


KDRI - Beauregard Regional

CURRENT METAR :
  • 060255Z AUTO 00000KT 10SM CLR 20/17 A3005 RMK AO2 T01950172

EXPIRED METARs :
  • 060235Z AUTO 00000KT 10SM CLR 20/17 A3005 RMK AO2 T01970169
  • 060215Z AUTO 00000KT 10SM CLR 20/17 A3004 RMK AO2 T01990166
  • 060155Z AUTO 00000KT 10SM CLR 20/16 A3003 RMK AO2 T02040163
  • 060135Z AUTO 00000KT 10SM CLR 20/16 A3003 RMK AO2 T02040162
  • 060115Z AUTO 00000KT 10SM CLR 21/16 A3003 RMK AO2 T02090162
  • 060055Z AUTO 00000KT 10SM CLR 22/16 A3002 RMK AO2 T02160157
  • 060035Z AUTO 00000KT 10SM CLR 22/16 A3002 RMK AO2 T02230156
  • 060015Z AUTO 00000KT 10SM CLR 23/16 A3002 RMK AO2 T02260156
  • 052355Z AUTO 00000KT 10SM CLR 23/15 A3002 RMK AO2 T02310151 10260 20221

TAF N/A



MET'MAP, your aeronautical weather chart ! - Copyright ORBIFLY December 2007 - Disclaimer

ORBIFLY MET'MAP TEAM :

Programming & Development : Alexandra Zaïnal
Concept & original design : Baudouin d'Aumeries
Assistance for programming : Marc-Olivier Méhu
Technical & hardware support : Manuel Goepfert

Contact : metmap@orbifly.com




SOURCES & CREDITS :

   NOAA       Earth
Advisory